createdAt,value
2019-01-20T00:01:58.782Z,3.20
2019-01-20T00:04:29.362Z,3.23
2019-01-20T00:06:59.387Z,3.40
2019-01-20T00:09:29.079Z,3.50
2019-01-20T00:11:58.783Z,3.13
2019-01-20T00:14:28.528Z,3.00
2019-01-20T00:16:59.254Z,3.70
2019-01-20T00:19:29.050Z,3.90
2019-01-20T00:21:58.914Z,4.57
2019-01-20T00:24:28.533Z,4.60
2019-01-20T00:26:58.029Z,3.77
2019-01-20T00:29:27.673Z,3.60
2019-01-20T00:31:57.438Z,3.97
2019-01-20T00:34:27.001Z,4.17
2019-01-20T00:36:56.803Z,4.07
2019-01-20T00:39:26.375Z,3.67
2019-01-20T00:41:56.018Z,3.03
2019-01-20T00:44:25.620Z,2.70
2019-01-20T00:46:55.189Z,3.50
2019-01-20T00:49:24.771Z,2.97
2019-01-20T00:51:54.376Z,3.10
2019-01-20T00:54:23.977Z,2.93
2019-01-20T00:56:53.600Z,3.03
2019-01-20T00:59:23.579Z,4.13
2019-01-20T01:01:53.254Z,2.43
2019-01-20T01:04:22.905Z,3.30
2019-01-20T01:06:52.584Z,3.37
2019-01-20T01:09:22.418Z,3.13
2019-01-20T01:11:53.660Z,2.50
2019-01-20T01:14:23.360Z,2.60
2019-01-20T01:16:53.041Z,2.67
2019-01-20T01:19:23.389Z,2.70
2019-01-20T01:21:53.315Z,2.70
2019-01-20T01:24:23.058Z,2.77
2019-01-20T01:26:52.721Z,2.87
2019-01-20T01:29:22.580Z,2.90
2019-01-20T01:31:52.317Z,2.80
2019-01-20T01:34:23.456Z,3.00
2019-01-20T01:37:13.387Z,2.83
2019-01-20T01:39:43.108Z,2.70
2019-01-20T01:42:13.100Z,2.50
2019-01-20T01:44:43.029Z,2.57
2019-01-20T01:47:13.212Z,3.33
2019-01-20T01:49:42.838Z,2.97
2019-01-20T01:52:12.547Z,2.83
2019-01-20T01:54:42.134Z,2.50
2019-01-20T01:57:11.672Z,3.10
2019-01-20T01:59:41.574Z,3.00
2019-01-20T02:02:11.228Z,3.97
2019-01-20T02:04:41.209Z,4.20
2019-01-20T02:07:11.122Z,4.40
2019-01-20T02:09:42.755Z,4.30
2019-01-20T02:12:13.932Z,4.83
2019-01-20T02:14:45.060Z,4.23
2019-01-20T02:17:15.056Z,4.30
2019-01-20T02:19:44.581Z,3.47
2019-01-20T02:22:14.401Z,3.30
2019-01-20T02:24:44.024Z,3.77
2019-01-20T02:27:13.703Z,3.93
2019-01-20T02:29:45.036Z,3.67
2019-01-20T02:32:14.778Z,3.57
2019-01-20T02:34:44.442Z,3.60
2019-01-20T02:37:14.083Z,3.70
2019-01-20T02:39:43.582Z,3.93
2019-01-20T02:42:13.284Z,5.58
2019-01-20T02:44:42.699Z,3.30
2019-01-20T02:47:12.248Z,3.97
2019-01-20T02:49:41.728Z,4.90
2019-01-20T02:52:11.350Z,4.43
2019-01-20T02:54:40.800Z,4.97
2019-01-20T02:57:10.336Z,4.90
